Time;durP1;ratioP1;P1;durP2;ratioP2;P2;SDS_P1;SDS_P2;PMS_P1;PMS_P2;Temp;Humidity;BMP_temperature;BMP_pressure;BME280_temperature;BME280_humidity;BME280_pressure;Samples;Min_cycle;Max_cycle;Signal;HPM_P1;HPM_P2
2021/06/23 00:00:38;;;;;;;10.70;6.28;;;;;;;21.15;52.04;101647.34;5057081;28;20056;-58
2021/06/23 00:03:03;;;;;;;13.70;6.82;;;;;;;21.12;52.27;101642.25;5047406;28;20029;-58
2021/06/23 00:05:29;;;;;;;13.98;7.47;;;;;;;21.15;52.40;101648.19;5056797;28;20029;-58
2021/06/23 00:07:54;;;;;;;12.30;6.47;;;;;;;21.16;52.38;101652.59;5047703;28;20029;-58
2021/06/23 00:10:20;;;;;;;9.57;6.72;;;;;;;21.19;52.78;101651.41;5056704;28;20358;-57
2021/06/23 00:12:46;;;;;;;12.77;7.18;;;;;;;21.14;52.46;101643.75;5056424;28;20033;-58
2021/06/23 00:15:14;;;;;;;13.52;6.82;;;;;;;21.17;52.07;101648.00;5056663;28;20064;-58
2021/06/23 00:17:39;;;;;;;14.52;6.97;;;;;;;21.16;52.77;101646.31;5056419;28;20029;-58
2021/06/23 00:20:06;;;;;;;11.85;7.85;;;;;;;21.13;52.15;101650.25;5048190;28;20041;-58
2021/06/23 00:22:32;;;;;;;10.35;6.78;;;;;;;21.15;52.42;101655.50;5045692;28;20127;-58
2021/06/23 00:24:57;;;;;;;18.27;7.32;;;;;;;21.12;52.99;101654.00;5048031;28;20052;-58
2021/06/23 00:27:23;;;;;;;14.60;7.55;;;;;;;21.06;52.17;101657.38;5046592;28;20025;-58
2021/06/23 00:29:48;;;;;;;15.70;7.57;;;;;;;21.06;52.48;101653.81;5037799;28;20074;-58
2021/06/23 00:32:19;;;;;;;19.10;8.27;;;;;;;21.08;52.17;101655.34;5045577;28;20033;-58
2021/06/23 00:34:45;;;;;;;15.82;7.35;;;;;;;21.11;51.95;101665.06;5045737;28;20047;-58
2021/06/23 00:37:11;;;;;;;10.68;7.20;;;;;;;21.08;52.28;101668.97;5044641;28;20094;-58
2021/06/23 00:39:36;;;;;;;14.80;7.55;;;;;;;21.09;52.41;101670.69;5045598;28;20038;-58
2021/06/23 00:42:02;;;;;;;12.05;6.88;;;;;;;21.10;52.52;101674.28;5039247;28;20036;-58
2021/06/23 00:44:29;;;;;;;14.98;8.52;;;;;;;21.06;51.94;101673.72;5056028;28;20035;-58
2021/06/23 00:46:54;;;;;;;11.18;6.95;;;;;;;21.09;52.32;101681.59;5039417;28;20091;-58
2021/06/23 00:49:20;;;;;;;11.02;7.50;;;;;;;21.08;52.60;101679.88;5057602;28;20037;-58
2021/06/23 00:51:46;;;;;;;11.93;6.63;;;;;;;21.06;52.17;101673.72;5057539;28;20120;-58
2021/06/23 00:54:13;;;;;;;15.90;7.53;;;;;;;21.09;52.00;101678.88;5039889;28;20108;-58
2021/06/23 00:56:39;;;;;;;12.35;8.55;;;;;;;21.06;52.02;101678.34;5056852;28;20033;-58
2021/06/23 00:59:05;;;;;;;16.23;8.50;;;;;;;21.07;52.03;101680.94;5038834;28;20040;-58
2021/06/23 01:01:32;;;;;;;11.88;7.47;;;;;;;21.08;52.37;101689.97;5055985;28;20523;-59
2021/06/23 01:03:58;;;;;;;13.80;7.57;;;;;;;21.07;51.64;101686.38;5055680;28;20056;-58
2021/06/23 01:06:23;;;;;;;12.70;7.15;;;;;;;21.07;51.72;101688.22;5057362;28;20385;-58
2021/06/23 01:08:49;;;;;;;15.50;7.43;;;;;;;20.99;52.01;101675.47;5057004;28;20025;-58
2021/06/23 01:11:15;;;;;;;15.02;7.60;;;;;;;21.01;52.11;101692.50;5038739;28;20048;-58
2021/06/23 01:13:56;;;;;;;12.00;6.80;;;;;;;21.01;52.13;101695.22;5039086;28;20037;-58
2021/06/23 01:16:22;;;;;;;17.67;7.20;;;;;;;20.98;51.73;101690.13;5056852;28;20063;-58
2021/06/23 01:18:47;;;;;;;11.68;6.88;;;;;;;20.98;51.77;101698.28;5038423;28;20045;-58
2021/06/23 01:21:13;;;;;;;10.43;6.25;;;;;;;20.99;52.16;101694.56;5055342;28;20381;-59
2021/06/23 01:23:38;;;;;;;12.75;6.97;;;;;;;21.01;51.74;101702.53;5056571;28;20032;-58
2021/06/23 01:26:04;;;;;;;10.90;7.13;;;;;;;21.01;51.84;101692.50;5054943;28;20073;-58
2021/06/23 01:28:29;;;;;;;11.27;6.50;;;;;;;21.02;52.04;101699.63;5056909;28;20119;-58
2021/06/23 01:30:56;;;;;;;11.43;6.15;;;;;;;20.97;51.80;101691.13;5038540;28;20466;-58
2021/06/23 01:33:22;;;;;;;11.95;5.85;;;;;;;20.99;51.62;101702.72;5039093;28;20078;-58
2021/06/23 01:35:48;;;;;;;11.65;5.68;;;;;;;20.98;51.97;101703.75;5038757;28;20421;-58
2021/06/23 01:38:14;;;;;;;7.50;5.57;;;;;;;21.00;51.88;101707.13;5054799;28;20036;-58
2021/06/23 01:40:39;;;;;;;10.02;5.18;;;;;;;21.02;51.42;101698.81;5056399;28;20059;-59
2021/06/23 01:43:08;;;;;;;17.23;6.22;;;;;;;21.01;51.17;101700.66;5056658;28;20025;-58
2021/06/23 01:45:33;;;;;;;10.57;4.97;;;;;;;21.03;51.37;101706.78;5056214;28;20131;-58
2021/06/23 01:47:59;;;;;;;7.97;5.47;;;;;;;21.02;51.11;101705.06;5038328;28;20060;-57
2021/06/23 01:50:24;;;;;;;9.18;5.78;;;;;;;20.98;51.51;101701.00;5056759;28;20039;-58
2021/06/23 01:52:49;;;;;;;17.25;5.32;;;;;;;20.92;51.92;101696.25;5038363;28;20036;-58
2021/06/23 01:55:28;;;;;;;17.05;6.03;;;;;;;20.90;51.93;101701.03;5038204;28;20359;-58
2021/06/23 01:58:06;;;;;;;9.65;5.90;;;;;;;20.90;52.09;101701.91;5056123;28;20031;-58
2021/06/23 02:00:58;;;;;;;9.50;6.25;;;;;;;20.90;51.28;101695.59;5037725;28;20033;-58
2021/06/23 02:03:45;;;;;;;12.52;5.68;;;;;;;20.87;51.50;101704.13;5055598;28;20385;-58
2021/06/23 02:06:20;;;;;;;12.45;5.47;;;;;;;20.82;51.51;101701.06;5055741;28;20083;-59
2021/06/23 02:08:48;;;;;;;7.45;4.70;;;;;;;20.83;51.33;101702.75;5054043;28;20533;-58
2021/06/23 02:11:27;;;;;;;10.75;5.65;;;;;;;20.83;51.64;101705.47;5055940;28;20060;-58
2021/06/23 02:14:20;;;;;;;16.38;5.30;;;;;;;20.84;51.17;101704.47;5054773;28;20028;-58
2021/06/23 02:16:48;;;;;;;11.65;5.88;;;;;;;20.84;51.56;101701.75;5055715;28;20043;-59
2021/06/23 02:19:14;;;;;;;14.27;5.57;;;;;;;20.83;51.61;101710.91;5055266;28;20049;-58
2021/06/23 02:21:39;;;;;;;9.80;5.28;;;;;;;20.83;51.63;101706.34;5055076;28;20044;-58
2021/06/23 02:24:06;;;;;;;13.57;5.45;;;;;;;20.79;51.28;101712.31;5054417;28;20033;-58
2021/06/23 02:26:33;;;;;;;10.13;4.80;;;;;;;20.80;51.10;101711.28;5055097;28;20546;-58
2021/06/23 02:28:58;;;;;;;11.00;5.53;;;;;;;20.79;51.51;101709.59;5037498;28;20036;-58
2021/06/23 02:31:28;;;;;;;14.55;6.38;;;;;;;20.73;51.45;101711.13;5055560;28;20521;-58
2021/06/23 02:33:55;;;;;;;9.13;5.93;;;;;;;20.77;51.54;101717.09;5055680;28;20070;-58
2021/06/23 02:36:20;;;;;;;7.53;5.30;;;;;;;20.76;51.09;101708.06;5037815;28;20017;-58
2021/06/23 02:38:46;;;;;;;11.02;5.57;;;;;;;20.74;51.30;101712.81;5054259;28;20370;-58
2021/06/23 02:41:12;;;;;;;10.90;5.35;;;;;;;20.72;51.42;101709.41;5055660;28;20431;-59
2021/06/23 02:43:37;;;;;;;8.23;4.80;;;;;;;20.69;51.39;101714.34;5055550;28;20052;-58
2021/06/23 02:46:03;;;;;;;10.93;5.38;;;;;;;20.64;51.81;101717.59;5054947;28;20056;-57
2021/06/23 02:48:29;;;;;;;7.82;6.30;;;;;;;20.64;51.46;101716.75;5053595;28;20115;-58
2021/06/23 02:51:16;;;;;;;13.77;5.60;;;;;;;20.63;51.61;101715.06;5037062;28;20033;-58
2021/06/23 02:53:41;;;;;;;11.13;5.45;;;;;;;20.62;51.71;101713.38;5055029;28;20016;-58
2021/06/23 02:56:06;;;;;;;8.00;5.25;;;;;;;20.59;51.71;101711.84;5053794;28;20070;-58
2021/06/23 02:58:33;;;;;;;18.00;5.75;;;;;;;20.57;51.37;101715.75;5054819;28;20508;-58
2021/06/23 03:00:59;;;;;;;9.15;5.32;;;;;;;20.58;51.75;101718.28;5054998;28;20035;-58
2021/06/23 03:03:24;;;;;;;12.88;5.55;;;;;;;20.55;51.88;101726.81;5036714;28;20029;-58
2021/06/23 03:05:49;;;;;;;14.25;5.75;;;;;;;20.56;51.75;101719.50;5054948;28;20039;-58
2021/06/23 03:08:15;;;;;;;12.23;5.38;;;;;;;20.53;51.40;101722.56;5054804;28;20024;-58
2021/06/23 03:10:40;;;;;;;11.15;5.65;;;;;;;20.53;51.78;101720.69;5054817;28;20017;-58
2021/06/23 03:13:06;;;;;;;11.70;5.20;;;;;;;20.54;51.70;101724.28;5036777;28;20029;-58
2021/06/23 03:15:31;;;;;;;10.10;5.55;;;;;;;20.53;51.56;101730.72;5054562;28;20021;-58
2021/06/23 03:17:56;;;;;;;10.35;5.55;;;;;;;20.48;51.28;101728.53;5054099;28;20021;-59
2021/06/23 03:20:22;;;;;;;11.13;6.72;;;;;;;20.48;51.34;101723.09;5055215;28;20025;-58
2021/06/23 03:22:47;;;;;;;12.65;5.20;;;;;;;20.49;50.89;101729.38;5054426;28;20112;-58
2021/06/23 03:25:13;;;;;;;9.70;6.10;;;;;;;20.50;51.81;101731.06;5054265;28;20032;-58
2021/06/23 03:27:38;;;;;;;16.27;6.75;;;;;;;20.50;51.80;101726.47;5054624;28;20029;-57
2021/06/23 03:30:05;;;;;;;9.10;5.90;;;;;;;20.48;51.78;101724.94;5054651;28;20029;-58
2021/06/23 03:32:30;;;;;;;17.60;5.55;;;;;;;20.46;52.06;101729.72;5052988;28;20037;-58
2021/06/23 03:34:55;;;;;;;9.38;6.35;;;;;;;20.47;51.23;101729.53;5054686;28;20462;-58
2021/06/23 03:37:21;;;;;;;12.10;6.43;;;;;;;20.47;51.56;101731.41;5036556;28;20115;-58
2021/06/23 03:39:46;;;;;;;8.75;6.15;;;;;;;20.43;51.72;101736.38;5054616;28;20033;-58
2021/06/23 03:42:11;;;;;;;9.77;5.22;;;;;;;20.43;52.13;101740.94;5054055;28;20028;-59
2021/06/23 03:44:37;;;;;;;15.68;6.22;;;;;;;20.44;51.71;101742.63;5054558;28;20171;-58
2021/06/23 03:47:03;;;;;;;9.13;5.78;;;;;;;20.40;51.79;101738.56;5053935;28;20059;-58
2021/06/23 03:49:28;;;;;;;15.07;6.53;;;;;;;20.39;51.80;101739.56;5054989;28;20036;-58
2021/06/23 03:51:54;;;;;;;10.52;5.30;;;;;;;20.39;51.36;101734.13;5054500;28;20044;-58
2021/06/23 03:54:20;;;;;;;13.25;6.00;;;;;;;20.37;51.65;101747.06;5054018;28;20025;-59
2021/06/23 03:56:45;;;;;;;14.88;5.72;;;;;;;20.36;52.21;101746.22;5054379;28;20021;-58
2021/06/23 03:59:11;;;;;;;14.45;6.60;;;;;;;20.35;51.38;101743.69;5053914;28;20108;-58
2021/06/23 04:01:36;;;;;;;10.95;5.53;;;;;;;20.35;51.40;101743.69;5054175;28;20485;-58
2021/06/23 04:04:01;;;;;;;11.25;5.90;;;;;;;20.30;51.80;101731.41;5054322;28;20029;-58
2021/06/23 04:06:28;;;;;;;13.00;5.57;;;;;;;20.34;52.18;101742.81;5054789;28;20389;-58
2021/06/23 04:08:53;;;;;;;13.43;5.22;;;;;;;20.35;51.93;101739.09;5054035;28;20025;-58
2021/06/23 04:11:19;;;;;;;12.10;5.97;;;;;;;20.36;51.35;101739.91;5036473;28;20134;-58
2021/06/23 04:13:44;;;;;;;11.07;6.13;;;;;;;20.37;51.61;101749.78;5036057;28;20056;-58
2021/06/23 04:16:10;;;;;;;14.60;6.22;;;;;;;20.36;51.82;101748.09;5054025;28;20036;-58
2021/06/23 04:18:35;;;;;;;11.55;6.60;;;;;;;20.33;51.70;101747.41;5054168;28;20405;-58
2021/06/23 04:21:00;;;;;;;12.18;6.75;;;;;;;20.35;51.53;101749.13;5036936;28;20081;-58
2021/06/23 04:23:26;;;;;;;14.60;5.82;;;;;;;20.32;51.91;101748.41;5053814;28;20036;-58
2021/06/23 04:25:51;;;;;;;10.65;5.88;;;;;;;20.37;52.08;101758.81;5054129;28;20442;-58
2021/06/23 04:28:17;;;;;;;12.45;6.03;;;;;;;20.36;51.72;101750.81;5054212;28;20091;-57
2021/06/23 04:30:42;;;;;;;17.30;5.38;;;;;;;20.36;52.38;101757.09;5054230;28;20410;-58
2021/06/23 04:33:07;;;;;;;13.73;6.05;;;;;;;20.38;51.64;101762.41;5053756;28;20029;-58
2021/06/23 04:35:33;;;;;;;12.40;6.68;;;;;;;20.38;50.87;101756.94;5054252;28;20044;-58
2021/06/23 04:37:58;;;;;;;11.35;6.72;;;;;;;20.37;51.52;101758.81;5057730;28;20112;-58
2021/06/23 04:40:24;;;;;;;10.27;5.60;;;;;;;20.35;52.14;101760.88;5039261;28;20029;-58
2021/06/23 04:42:49;;;;;;;10.85;5.63;;;;;;;20.33;51.65;101766.47;5057082;28;20102;-59
2021/06/23 04:45:15;;;;;;;11.15;6.30;;;;;;;20.35;51.77;101765.44;5057250;28;20025;-58
2021/06/23 04:47:41;;;;;;;15.45;6.13;;;;;;;20.36;51.74;101764.41;5057629;28;20033;-58
2021/06/23 04:50:08;;;;;;;13.57;5.70;;;;;;;20.37;51.62;101766.13;5039789;28;20116;-58
2021/06/23 04:52:34;;;;;;;9.07;5.25;;;;;;;20.35;51.27;101760.88;5057174;28;20025;-58
2021/06/23 04:54:59;;;;;;;18.05;6.03;;;;;;;20.35;51.39;101765.44;5057417;28;20047;-58
2021/06/23 04:57:25;;;;;;;11.40;5.75;;;;;;;20.35;51.94;101760.00;5056688;28;20032;-58
2021/06/23 04:59:50;;;;;;;17.73;6.45;;;;;;;20.33;51.66;101755.56;5057492;28;20089;-58
2021/06/23 05:02:16;;;;;;;9.98;6.18;;;;;;;20.40;51.58;101763.91;5039117;28;20020;-59
2021/06/23 05:04:41;;;;;;;18.45;5.80;;;;;;;20.42;51.98;101767.31;5056850;28;20028;-58
2021/06/23 05:07:07;;;;;;;12.68;5.75;;;;;;;20.45;51.68;101771.56;5056890;28;20461;-58
2021/06/23 05:09:34;;;;;;;9.43;5.60;;;;;;;20.47;52.14;101772.25;5056564;28;20063;-58
2021/06/23 05:11:59;;;;;;;9.07;5.68;;;;;;;20.46;51.37;101763.25;5055788;28;20060;-58
2021/06/23 05:14:25;;;;;;;11.48;6.05;;;;;;;20.54;51.98;101765.97;5056513;28;20025;-58
2021/06/23 05:16:51;;;;;;;10.70;6.47;;;;;;;20.56;51.44;101768.50;5057107;28;20025;-59
2021/06/23 05:19:17;;;;;;;7.07;5.32;;;;;;;20.57;51.47;101772.94;5056133;28;20083;-58
2021/06/23 05:21:43;;;;;;;7.80;5.97;;;;;;;20.60;51.87;101769.88;5056916;28;20025;-58
2021/06/23 05:24:08;;;;;;;12.52;5.68;;;;;;;20.54;51.19;101759.66;5056961;28;20118;-58
2021/06/23 05:26:34;;;;;;;12.43;5.78;;;;;;;20.56;52.15;101769.34;5056332;28;20182;-58
2021/06/23 05:28:59;;;;;;;10.80;5.40;;;;;;;20.61;51.85;101779.72;5039089;28;20063;-58
2021/06/23 05:31:25;;;;;;;11.57;6.22;;;;;;;20.63;51.57;101777.69;5056627;28;20060;-58
2021/06/23 05:33:50;;;;;;;10.77;6.38;;;;;;;20.59;51.52;101769.00;5057003;28;20037;-58
2021/06/23 05:36:16;;;;;;;11.65;6.63;;;;;;;20.62;51.55;101774.13;5056535;28;20048;-57
2021/06/23 05:38:41;;;;;;;14.63;6.07;;;;;;;20.65;51.61;101772.94;5056680;28;20029;-58
2021/06/23 05:41:07;;;;;;;12.30;7.15;;;;;;;20.65;51.55;101778.38;5056706;28;20029;-58
2021/06/23 05:43:32;;;;;;;13.65;6.15;;;;;;;20.66;51.41;101777.38;5056797;28;20025;-57
2021/06/23 05:45:58;;;;;;;16.77;6.75;;;;;;;20.62;51.64;101767.81;5056308;28;20470;-57
2021/06/23 05:48:23;;;;;;;15.52;6.60;;;;;;;20.64;51.60;101777.50;5045072;28;20029;-58
2021/06/23 05:50:49;;;;;;;14.02;5.97;;;;;;;20.66;51.98;101786.34;5036212;28;20104;-57
2021/06/23 05:53:14;;;;;;;16.08;5.80;;;;;;;20.66;51.73;101774.63;5036076;28;20079;-58
2021/06/23 05:55:40;;;;;;;13.50;5.72;;;;;;;20.69;51.53;101774.25;5036371;28;20025;-58
2021/06/23 05:58:06;;;;;;;12.20;5.90;;;;;;;20.78;51.73;101795.03;5036515;28;20029;-58
2021/06/23 06:00:32;;;;;;;9.90;6.13;;;;;;;20.80;52.18;101798.41;5036782;28;20076;-59
2021/06/23 06:02:57;;;;;;;10.13;6.97;;;;;;;20.81;52.18;101789.25;5036279;28;20025;-57
2021/06/23 06:05:23;;;;;;;8.38;5.32;;;;;;;20.82;51.47;101785.50;5035901;28;20057;-58
2021/06/23 06:07:49;;;;;;;13.57;6.80;;;;;;;20.83;51.73;101782.59;5035874;28;20432;-59
2021/06/23 06:10:15;;;;;;;13.45;6.15;;;;;;;20.90;51.56;101788.22;5035912;28;20044;-64
2021/06/23 06:12:40;;;;;;;13.02;6.18;;;;;;;20.93;51.96;101790.59;5035764;28;20037;-58
2021/06/23 06:15:06;;;;;;;8.55;5.38;;;;;;;20.97;51.61;101797.38;5035800;28;20477;-58
2021/06/23 06:17:32;;;;;;;14.10;6.60;;;;;;;20.99;51.86;101791.78;5035847;28;20029;-57
2021/06/23 06:19:58;;;;;;;12.00;6.72;;;;;;;21.04;52.10;101792.97;5031535;28;20156;-58
2021/06/23 06:22:24;;;;;;;13.38;5.55;;;;;;;21.07;51.88;101792.66;5034251;28;20538;-57
2021/06/23 06:24:50;;;;;;;11.68;6.30;;;;;;;21.11;52.04;101795.84;5035545;28;20040;-57
2021/06/23 06:27:15;;;;;;;10.52;6.68;;;;;;;21.16;51.94;101793.47;5035205;28;20025;-58
2021/06/23 06:29:40;;;;;;;11.57;6.07;;;;;;;21.20;51.50;101795.66;5035860;28;20038;-58
2021/06/23 06:32:06;;;;;;;14.23;6.65;;;;;;;21.20;51.71;101801.13;5034009;28;20030;-57
2021/06/23 06:34:31;;;;;;;12.63;6.15;;;;;;;21.19;52.22;101804.84;5035211;28;20045;-57
2021/06/23 06:36:57;;;;;;;13.55;6.65;;;;;;;21.21;51.97;101804.69;5035242;28;20159;-58
2021/06/23 06:39:22;;;;;;;8.18;6.03;;;;;;;21.24;51.85;101813.38;5035634;28;20025;-59
2021/06/23 06:41:48;;;;;;;10.57;6.70;;;;;;;21.28;51.75;101813.88;5033911;28;20030;-58
2021/06/23 06:44:13;;;;;;;13.18;5.90;;;;;;;21.31;51.85;101819.81;5034099;28;20382;-59
2021/06/23 06:46:38;;;;;;;15.98;7.22;;;;;;;21.36;52.13;101817.41;5035023;28;20029;-59
2021/06/23 06:49:04;;;;;;;10.23;6.50;;;;;;;21.42;51.84;101816.72;5035688;28;20045;-59
2021/06/23 06:51:30;;;;;;;12.52;6.32;;;;;;;21.47;51.55;101821.63;5034769;28;20084;-59
2021/06/23 06:53:55;;;;;;;12.88;6.35;;;;;;;21.52;51.80;101813.81;5034904;28;20138;-59
2021/06/23 06:56:21;;;;;;;11.13;6.20;;;;;;;21.53;52.17;101811.91;5034475;28;20390;-59
2021/06/23 06:58:46;;;;;;;11.95;6.38;;;;;;;21.59;52.00;101816.66;5034421;28;20025;-59
2021/06/23 07:01:12;;;;;;;12.80;5.82;;;;;;;21.60;51.38;101815.63;5034632;28;20034;-59
2021/06/23 07:03:37;;;;;;;9.05;5.32;;;;;;;21.58;51.63;101817.69;5034499;28;20038;-59
2021/06/23 07:06:02;;;;;;;9.45;5.88;;;;;;;21.63;51.47;101824.31;5034675;28;20033;-59
2021/06/23 07:08:28;;;;;;;12.85;6.43;;;;;;;21.65;51.38;101832.31;5034810;28;20021;-59
2021/06/23 07:10:53;;;;;;;14.63;6.85;;;;;;;21.69;51.36;101833.69;5034489;28;20040;-59
2021/06/23 07:13:18;;;;;;;10.68;5.97;;;;;;;21.69;51.47;101837.22;5034789;28;20034;-59
2021/06/23 07:15:44;;;;;;;11.77;6.68;;;;;;;21.76;51.23;101840.09;5032601;28;20609;-59
2021/06/23 07:18:09;;;;;;;10.02;6.40;;;;;;;21.80;51.30;101827.81;5033598;28;20443;-59
2021/06/23 07:20:35;;;;;;;14.23;7.57;;;;;;;21.89;51.11;101830.34;5054632;28;20040;-59
2021/06/23 07:23:00;;;;;;;12.40;6.75;;;;;;;21.89;51.30;101819.44;5036274;28;20029;-59
2021/06/23 07:25:26;;;;;;;9.15;5.97;;;;;;;21.96;51.37;101830.50;5053838;28;20393;-60
2021/06/23 07:27:51;;;;;;;11.52;6.25;;;;;;;21.96;51.37;101831.34;5053785;28;20432;-59
2021/06/23 07:30:17;;;;;;;9.52;6.28;;;;;;;22.03;51.14;101828.75;5054483;28;20123;-58
2021/06/23 07:37:56;;;;;;;9.85;5.88;;;;;;;22.05;51.22;101826.69;5053428;28;20032;-59
2021/06/23 07:40:34;;;;;;;10.45;6.35;;;;;;;22.09;50.74;101830.75;5053693;28;20029;-59
2021/06/23 07:43:00;;;;;;;10.60;5.40;;;;;;;22.15;51.07;101830.03;5053534;28;20035;-60
2021/06/23 07:45:25;;;;;;;9.27;6.30;;;;;;;22.18;50.42;101829.69;5053507;28;20029;-59
2021/06/23 07:47:51;;;;;;;13.32;6.03;;;;;;;22.22;51.37;101828.28;5053487;28;20033;-58
2021/06/23 07:50:16;;;;;;;13.68;6.13;;;;;;;22.23;50.81;101838.19;5053891;28;20033;-59
2021/06/23 07:52:49;;;;;;;13.32;7.60;;;;;;;22.16;50.30;101820.84;5053537;28;20033;-60
2021/06/23 08:09:10;;;;;;;14.32;5.93;;;;;;;22.59;50.04;101822.03;5053411;28;20040;-60
2021/06/23 08:11:41;;;;;;;11.55;7.15;;;;;;;22.78;50.39;101826.19;5056660;28;20029;-59
2021/06/23 08:14:08;;;;;;;10.32;6.57;;;;;;;22.89;50.44;101823.03;5057143;28;20017;-59
2021/06/23 08:16:35;;;;;;;12.30;6.45;;;;;;;23.00;50.75;101825.31;5057160;28;20024;-59
2021/06/23 08:19:00;;;;;;;9.02;5.65;;;;;;;23.16;50.51;101830.59;5054772;28;20056;-58
2021/06/23 08:21:26;;;;;;;10.75;5.25;;;;;;;23.22;49.41;101832.59;5055558;28;20051;-60
2021/06/23 08:23:51;;;;;;;8.60;5.68;;;;;;;23.20;49.61;101829.16;5057254;28;20029;-59
2021/06/23 08:26:16;;;;;;;9.43;5.30;;;;;;;23.19;49.85;101833.81;5057066;28;20052;-59
2021/06/23 08:28:42;;;;;;;9.40;4.93;;;;;;;23.15;50.31;101826.16;5057165;28;20086;-59
2021/06/23 08:31:07;;;;;;;10.40;5.20;;;;;;;23.19;50.19;101835.69;5056904;28;20036;-59
2021/06/23 08:33:33;;;;;;;7.85;4.35;;;;;;;23.20;49.71;101843.69;5056785;28;20133;-59
2021/06/23 08:35:58;;;;;;;14.02;5.60;;;;;;;23.21;49.00;101839.09;5056500;28;20048;-59
2021/06/23 08:38:24;;;;;;;9.75;5.55;;;;;;;23.22;49.97;101840.78;5057017;28;20064;-59
2021/06/23 08:40:50;;;;;;;8.40;5.97;;;;;;;23.23;49.23;101842.47;5056709;28;20029;-59
2021/06/23 08:43:16;;;;;;;14.30;5.78;;;;;;;23.15;49.13;101846.16;5056638;28;20029;-58
2021/06/23 08:45:42;;;;;;;12.18;6.43;;;;;;;23.20;49.57;101854.63;5056755;28;20051;-59
2021/06/23 08:48:08;;;;;;;11.75;5.75;;;;;;;23.22;49.11;101845.41;5056331;28;20122;-59
2021/06/23 08:50:34;;;;;;;8.40;4.50;;;;;;;23.18;49.20;101837.56;5038515;28;20477;-59
2021/06/23 08:52:59;;;;;;;11.95;4.70;;;;;;;23.16;48.83;101847.84;5038435;28;20032;-60
2021/06/23 08:55:24;;;;;;;9.10;5.05;;;;;;;23.18;48.95;101853.97;5056703;28;20025;-59
2021/06/23 08:57:51;;;;;;;12.40;4.55;;;;;;;23.25;48.77;101855.97;5056067;28;20111;-59
2021/06/23 09:00:18;;;;;;;12.35;4.60;;;;;;;23.22;48.87;101859.94;5056519;28;20029;-58
2021/06/23 09:02:44;;;;;;;8.70;4.28;;;;;;;23.22;48.82;101857.19;5055965;28;20017;-59
2021/06/23 09:05:12;;;;;;;11.52;4.47;;;;;;;23.21;48.73;101863.69;5056356;28;20029;-60
2021/06/23 09:07:39;;;;;;;11.20;4.05;;;;;;;23.29;48.88;101852.66;5054981;28;20033;-60
2021/06/23 09:10:28;;;;;;;10.02;5.50;;;;;;;23.40;48.39;101849.50;5055217;28;20377;-59
2021/06/23 09:13:17;;;;;;;9.20;4.57;;;;;;;23.47;49.21;101850.47;5045416;28;20052;-59
2021/06/23 09:15:42;;;;;;;11.52;4.60;;;;;;;23.49;49.22;101853.84;5028320;28;20036;-59
2021/06/23 09:18:11;;;;;;;10.63;5.13;;;;;;;23.52;48.48;101853.47;5041945;28;20028;-59
2021/06/23 09:20:37;;;;;;;8.20;4.28;;;;;;;23.56;48.58;101857.50;5032070;28;20064;-59
2021/06/23 09:23:02;;;;;;;8.40;5.35;;;;;;;23.60;48.38;101861.59;5035055;28;20029;-58
2021/06/23 09:25:31;;;;;;;13.18;4.57;;;;;;;23.57;48.79;101861.97;5035512;28;20092;-58
2021/06/23 09:27:59;;;;;;;11.60;4.75;;;;;;;23.64;48.18;101862.91;5035670;28;20103;-59
2021/06/23 09:30:33;;;;;;;8.82;4.82;;;;;;;23.72;48.64;101862.81;5035821;28;20374;-59
2021/06/23 09:33:07;;;;;;;10.50;4.47;;;;;;;23.78;48.11;101866.69;5036321;28;20033;-60
2021/06/23 09:35:33;;;;;;;15.05;4.63;;;;;;;23.89;47.68;101854.41;5035440;28;20091;-58
2021/06/23 09:37:58;;;;;;;10.07;3.92;;;;;;;24.03;47.28;101862.59;5036536;28;20443;-59
2021/06/23 09:40:25;;;;;;;10.02;5.10;;;;;;;24.12;48.01;101860.63;5035679;28;20030;-59
2021/06/23 09:42:57;;;;;;;10.48;4.93;;;;;;;24.17;47.32;101863.63;5035840;28;20104;-59
2021/06/23 09:45:23;;;;;;;11.50;4.63;;;;;;;24.21;47.99;101870.41;5035434;28;20033;-59
2021/06/23 09:47:49;;;;;;;9.80;4.20;;;;;;;24.24;47.02;101865.38;5048415;28;20389;-58
2021/06/23 09:50:24;;;;;;;7.13;4.15;;;;;;;24.37;47.13;101870.19;5053729;28;20036;-59
2021/06/23 09:53:12;;;;;;;6.65;4.00;;;;;;;24.46;46.71;101862.66;5053621;28;20040;-59
2021/06/23 09:55:47;;;;;;;19.38;4.95;;;;;;;24.53;46.97;101869.06;5051826;28;20013;-59
2021/06/23 09:58:20;;;;;;;10.52;4.15;;;;;;;24.60;46.47;101870.84;5051144;28;20024;-58
2021/06/23 10:01:12;;;;;;;10.07;5.38;;;;;;;24.67;46.45;101873.66;5053466;28;20389;-59
2021/06/23 10:04:06;;;;;;;7.22;4.07;;;;;;;24.69;46.06;101869.66;5043477;28;20016;-59
2021/06/23 10:06:32;;;;;;;11.63;4.32;;;;;;;24.70;46.34;101882.34;5054701;28;20029;-59
2021/06/23 10:09:21;;;;;;;7.10;3.47;;;;;;;24.72;46.35;101874.75;5055005;28;20095;-58
2021/06/23 10:11:49;;;;;;;11.00;3.72;;;;;;;24.78;46.42;101867.63;5053790;28;20461;-58
2021/06/23 10:14:15;;;;;;;10.57;4.32;;;;;;;24.87;46.29;101864.56;5070042;28;20071;-58
2021/06/23 10:16:41;;;;;;;9.70;4.13;;;;;;;24.94;46.21;101861.91;5054843;28;20037;-58
2021/06/23 10:19:08;;;;;;;9.30;4.60;;;;;;;25.07;46.07;101864.75;5058750;28;20052;-58
2021/06/23 10:21:35;;;;;;;12.15;4.20;;;;;;;25.23;45.48;101860.88;5074664;28;20020;-59
2021/06/23 10:24:01;;;;;;;8.48;3.92;;;;;;;25.35;45.28;101853.78;5074665;28;20032;-59
2021/06/23 10:26:27;;;;;;;11.60;4.03;;;;;;;25.46;45.22;101851.31;5056803;28;20097;-59
2021/06/23 10:28:54;;;;;;;6.78;3.42;;;;;;;25.60;45.28;101852.28;5074577;28;20021;-59
2021/06/23 10:31:25;;;;;;;8.38;3.53;;;;;;;25.81;44.86;101851.34;5074485;28;20025;-58
2021/06/23 10:33:50;;;;;;;11.57;4.40;;;;;;;25.98;44.79;101839.81;5055776;28;20016;-58
2021/06/23 10:36:16;;;;;;;11.80;4.32;;;;;;;26.16;44.45;101850.22;5074396;28;20035;-59
2021/06/23 10:38:48;;;;;;;11.38;4.38;;;;;;;26.28;44.26;101847.72;5074406;28;20077;-59
2021/06/23 10:41:14;;;;;;;10.25;4.60;;;;;;;26.37;44.28;101850.09;5074384;28;20035;-58
2021/06/23 10:43:40;;;;;;;13.07;4.45;;;;;;;26.43;44.59;101853.91;5056666;28;20113;-59
2021/06/23 10:46:06;;;;;;;8.77;3.55;;;;;;;26.50;43.93;101844.63;5056513;28;20024;-59
2021/06/23 10:48:52;;;;;;;11.43;3.97;;;;;;;26.63;43.46;101853.94;5074181;28;20036;-58
2021/06/23 10:51:25;;;;;;;10.48;3.45;;;;;;;26.68;43.67;101851.41;5040082;28;20028;-59
2021/06/23 10:53:50;;;;;;;7.13;3.53;;;;;;;26.76;43.29;101853.97;5074178;28;20461;-59
2021/06/23 10:56:43;;;;;;;12.15;4.00;;;;;;;26.83;43.52;101855.69;5073882;28;20104;-58
2021/06/23 10:59:30;;;;;;;12.10;4.43;;;;;;;26.81;43.13;101859.69;5073801;28;20026;-58
2021/06/23 11:02:11;;;;;;;4.47;3.92;;;;;;;26.74;42.94;101862.44;5074051;28;20031;-58
2021/06/23 11:05:02;;;;;;;7.75;3.45;;;;;;;26.69;42.82;101859.44;5056107;28;20027;-59
2021/06/23 11:07:33;;;;;;;5.28;3.17;;;;;;;26.65;43.34;101860.06;5074026;28;20021;-58
2021/06/23 11:10:11;;;;;;;12.02;3.85;;;;;;;26.61;43.71;101862.41;5073900;28;20385;-58
2021/06/23 11:12:50;;;;;;;7.05;3.88;;;;;;;26.55;42.71;101858.56;5073893;28;20485;-58
2021/06/23 11:15:17;;;;;;;9.45;3.53;;;;;;;26.50;42.97;101866.59;5074141;28;20028;-58
2021/06/23 11:17:43;;;;;;;9.07;4.60;;;;;;;26.50;42.86;101863.00;5055814;28;20021;-58
2021/06/23 11:20:21;;;;;;;9.65;3.10;;;;;;;26.44;43.13;101863.84;5050071;28;20186;-58
2021/06/23 11:22:49;;;;;;;14.25;3.38;;;;;;;26.36;42.61;101864.03;5053737;28;20041;-58
2021/06/23 11:25:25;;;;;;;5.00;3.58;;;;;;;26.32;42.58;101865.50;5052466;28;20122;-58
2021/06/23 11:28:09;;;;;;;9.25;3.75;;;;;;;26.24;42.75;101862.97;5053977;28;20078;-58
2021/06/23 11:31:03;;;;;;;8.93;3.63;;;;;;;26.19;43.38;101868.19;5068840;28;20036;-59
2021/06/23 11:33:28;;;;;;;7.00;4.07;;;;;;;26.14;43.21;101860.59;5053557;28;20143;-58
2021/06/23 11:36:01;;;;;;;6.82;4.40;;;;;;;26.14;43.03;101870.72;5053649;28;20481;-58
2021/06/23 11:38:27;;;;;;;13.73;4.25;;;;;;;26.12;42.76;101872.81;5053861;28;20071;-59
2021/06/23 11:40:54;;;;;;;11.45;3.50;;;;;;;26.10;42.71;101869.44;5069579;28;20048;-59